• Join FlightAware (Why Join?)
  • Login
  • US Flag GB Flag 
09:46 EDT


 

Airport Tracker/Info


-or-


 

Live Flight TrackerFlight Track Log ✈ N53725 ✈ 19-Apr-2013 ✈ PHOG / OGG - RJTT / HND

Flight Track Log - Related Links

Times and Time Zones

All times are in EDT time to prevent confusion due to time zone crossing. See the N53725 flight status page for this flight to view local times or setup timezone preferences in your user account.

Time Position Orientation Groundspeed Altitude Reporting Facility
EDT Latitude Longitude Course Direction KTS MPH feet Rate Location/Type
23:41 20.9000 -156.3000 270° West 130 150 1,400  Level Honolulu Center
23:42 20.9000 -156.3333 270° West 140 161 1,300 -300 Descending Honolulu Center
23:43 20.8833 -156.3667 242° Southwest 140 161 800 -300 Descending Honolulu Center
23:44 20.8833 -156.4167 270° West 130 150 700 -180 Descending Honolulu Center
23:45 20.8667 -156.4333 223° Southwest 110 127 500 -240 Descending Honolulu Center
23:47 20.8500 -156.5904 270° West  Level FlightAware Approximate
23:54 20.9084 -157.4503 285° West  Level FlightAware Approximate
23:55 20.9509 -157.5689 293° West  Level FlightAware Approximate
23:56 20.9965 -157.6894 290° West  Level FlightAware Approximate
23:57 21.0333 -157.8127 270° West  Level FlightAware Approximate
23:58 21.0667 -157.9355 270° West  Level FlightAware Approximate
23:59 21.1030 -158.0589 290° West  Level FlightAware Approximate
00:00 21.1457 -158.1808 293° West  Level FlightAware Approximate
00:01 21.1853 -158.3035 300° West  Level FlightAware Approximate
00:02 21.2466 -158.4160 300° West  Level FlightAware Approximate
00:03 21.2941 -158.5344 283° West  Level FlightAware Approximate
00:04 21.3208 -158.6615 283° West  Level FlightAware Approximate
00:05 21.3475 -158.7888 283° West  Level FlightAware Approximate
00:06 21.3740 -158.9160 283° West  Level FlightAware Approximate
00:07 21.4004 -159.0434 283° West  Level FlightAware Approximate
00:08 21.4268 -159.1707 283° West  Level FlightAware Approximate
00:09 21.4548 -159.2976 290° West  Level FlightAware Approximate
00:10 21.4837 -159.4241 281° West  Level FlightAware Approximate
00:11 21.5077 -159.5521 281° West  Level FlightAware Approximate
00:12 21.5326 -159.6799 282° West  Level FlightAware Approximate
00:13 21.5581 -159.8075 282° West  Level FlightAware Approximate
00:14 21.5835 -159.9353 282° West  Level FlightAware Approximate
00:15 21.6087 -160.0631 282° West  Level FlightAware Approximate
00:16 21.6339 -160.1909 282° West  Level FlightAware Approximate
00:17 21.6589 -160.3188 282° West  Level FlightAware Approximate
00:18 21.6839 -160.4467 282° West  Level FlightAware Approximate
00:19 21.7088 -160.5746 282° West  Level FlightAware Approximate
00:20 21.7335 -160.7026 282° West  Level FlightAware Approximate
00:21 21.7582 -160.8307 282° West  Level FlightAware Approximate
00:22 21.7828 -160.9588 282° West  Level FlightAware Approximate
00:23 21.8073 -161.0869 282° West  Level FlightAware Approximate
00:24 21.8316 -161.2151 282° West  Level FlightAware Approximate
00:25 21.8559 -161.3433 282° West  Level FlightAware Approximate
00:26 21.8801 -161.4716 282° West  Level FlightAware Approximate
00:27 21.9042 -161.5999 281° West  Level FlightAware Approximate
00:28 21.9251 -161.7288 278° West  Level FlightAware Approximate
00:29 21.9426 -161.8584 278° West  Level FlightAware Approximate
00:30 21.9599 -161.9880 278° West  Level FlightAware Approximate
00:31 21.9772 -162.1176 278° West  Level FlightAware Approximate
00:32 21.9944 -162.2473 278° West  Level FlightAware Approximate
00:33 22.0115 -162.3770 278° West  Level FlightAware Approximate
00:34 22.0285 -162.5068 278° West  Level FlightAware Approximate
00:35 22.0453 -162.6366 278° West  Level FlightAware Approximate
00:36 22.0621 -162.7664 278° West  Level FlightAware Approximate
00:37 22.0788 -162.8962 278° West  Level FlightAware Approximate
00:38 22.0954 -163.0260 278° West  Level FlightAware Approximate
00:39 22.1118 -163.1559 278° West  Level FlightAware Approximate
00:40 22.1282 -163.2858 278° West  Level FlightAware Approximate
00:41 22.1444 -163.4158 278° West  Level FlightAware Approximate
00:42 22.1606 -163.5458 278° West  Level FlightAware Approximate
00:43 22.1766 -163.6758 278° West  Level FlightAware Approximate
00:44 22.1926 -163.8058 278° West  Level FlightAware Approximate
00:45 22.2005 -163.9365 279° West  Level FlightAware Approximate
00:46 22.2200 -164.0660 279° West  Level FlightAware Approximate
00:47 22.2395 -164.1955 279° West  Level FlightAware Approximate
00:48 22.2588 -164.3250 279° West  Level FlightAware Approximate
00:49 22.2781 -164.4547 279° West  Level FlightAware Approximate
00:50 22.2972 -164.5843 279° West  Level FlightAware Approximate
00:51 22.3162 -164.7139 279° West  Level FlightAware Approximate
00:52 22.3352 -164.8437 279° West  Level FlightAware Approximate
00:53 22.3540 -164.9734 279° West  Level FlightAware Approximate
00:54 22.3727 -165.1032 279° West  Level FlightAware Approximate
00:55 22.3914 -165.2330 279° West  Level FlightAware Approximate
00:56 22.4099 -165.3628 279° West  Level FlightAware Approximate
00:57 22.4283 -165.4927 279° West  Level FlightAware Approximate
00:58 22.4466 -165.6226 279° West  Level FlightAware Approximate
00:59 22.4648 -165.7526 279° West  Level FlightAware Approximate
01:00 22.4829 -165.8826 279° West  Level FlightAware Approximate
01:01 22.5009 -166.0126 279° West  Level FlightAware Approximate
01:02 22.5188 -166.1426 278° West  Level FlightAware Approximate
01:03 22.5366 -166.2727 278° West  Level FlightAware Approximate
01:04 22.5543 -166.4028 278° West  Level FlightAware Approximate
01:05 22.5719 -166.5330 278° West  Level FlightAware Approximate
01:06 22.5894 -166.6631 278° West  Level FlightAware Approximate
01:07 22.6067 -166.7934 278° West  Level FlightAware Approximate
01:08 22.6240 -166.9236 278° West  Level FlightAware Approximate
01:09 22.6412 -167.0539 278° West  Level FlightAware Approximate
01:10 22.6582 -167.1842 278° West  Level FlightAware Approximate
01:11 22.6752 -167.3146 278° West  Level FlightAware Approximate
01:12 22.6920 -167.4449 278° West  Level FlightAware Approximate
01:13 22.7088 -167.5753 278° West  Level FlightAware Approximate
01:14 22.7254 -167.7058 278° West  Level FlightAware Approximate
01:15 22.7419 -167.8363 278° West  Level FlightAware Approximate
01:16 22.7583 -167.9668 278° West  Level FlightAware Approximate
01:17 22.7747 -168.0973 278° West  Level FlightAware Approximate
01:18 22.7909 -168.2279 278° West  Level FlightAware Approximate
01:19 22.8070 -168.3585 278° West  Level FlightAware Approximate
01:20 22.8230 -168.4891 278° West  Level FlightAware Approximate
01:21 22.8389 -168.6198 278° West  Level FlightAware Approximate
01:22 22.8547 -168.7505 277° West  Level FlightAware Approximate
01:23 22.8703 -168.8812 277° West  Level FlightAware Approximate
01:24 22.8859 -169.0119 277° West  Level FlightAware Approximate
01:25 22.9014 -169.1427 277° West  Level FlightAware Approximate
01:26 22.9167 -169.2735 277° West  Level FlightAware Approximate
01:27 22.9320 -169.4044 277° West  Level FlightAware Approximate
01:28 22.9471 -169.5352 277° West  Level FlightAware Approximate
01:29 22.9622 -169.6661 277° West  Level FlightAware Approximate
01:30 22.9771 -169.7971 277° West  Level FlightAware Approximate
01:31 22.9919 -169.9280 277° West  Level FlightAware Approximate
01:32 23.0077 -170.0588 278° West  Level FlightAware Approximate
01:33 23.0249 -170.1895 278° West  Level FlightAware Approximate
01:34 23.0418 -170.3202 278° West  Level FlightAware Approximate
01:35 23.0587 -170.4509 278° West  Level FlightAware Approximate
01:36 23.0755 -170.5816 278° West  Level FlightAware Approximate
01:37 23.0922 -170.7124 278° West  Level FlightAware Approximate
01:38 23.1088 -170.8433 278° West  Level FlightAware Approximate
01:39 23.1252 -170.9741 278° West  Level FlightAware Approximate
01:40 23.1416 -171.1050 278° West  Level FlightAware Approximate
01:41 23.1579 -171.2359 278° West  Level FlightAware Approximate
01:42 23.1740 -171.3669 278° West  Level FlightAware Approximate
01:43 23.1900 -171.4978 278° West  Level FlightAware Approximate
01:44 23.2059 -171.6288 278° West  Level FlightAware Approximate
01:45 23.2218 -171.7599 278° West  Level FlightAware Approximate
01:46 23.2375 -171.8910 277° West  Level FlightAware Approximate
01:47 23.2531 -172.0221 277° West  Level FlightAware Approximate
01:48 23.2686 -172.1532 277° West  Level FlightAware Approximate
01:49 23.2839 -172.2844 277° West  Level FlightAware Approximate
01:50 23.2992 -172.4156 277° West  Level FlightAware Approximate
01:51 23.3144 -172.5468 277° West  Level FlightAware Approximate
01:52 23.3294 -172.6781 277° West  Level FlightAware Approximate
01:53 23.3444 -172.8093 277° West  Level FlightAware Approximate
01:54 23.3592 -172.9406 277° West  Level FlightAware Approximate
01:55 23.3739 -173.0720 277° West  Level FlightAware Approximate
01:56 23.3885 -173.2034 277° West  Level FlightAware Approximate
01:57 23.4030 -173.3347 277° West  Level FlightAware Approximate
01:58 23.4174 -173.4662 277° West  Level FlightAware Approximate
01:59 23.4317 -173.5976 277° West  Level FlightAware Approximate
02:00 23.4459 -173.7291 277° West  Level FlightAware Approximate
02:01 23.4599 -173.8606 277° West  Level FlightAware Approximate
02:02 23.4739 -173.9922 277° West  Level FlightAware Approximate
02:03 23.4877 -174.1237 277° West  Level FlightAware Approximate
02:04 23.5014 -174.2554 277° West  Level FlightAware Approximate
02:05 23.5151 -174.3870 276° West  Level FlightAware Approximate
02:06 23.5286 -174.5186 276° West  Level FlightAware Approximate
02:07 23.5420 -174.6503 276° West  Level FlightAware Approximate
02:08 23.5553 -174.7820 276° West  Level FlightAware Approximate
02:09 23.5684 -174.9138 276° West  Level FlightAware Approximate
02:10 23.5815 -175.0455 276° West  Level FlightAware Approximate
02:11 23.5945 -175.1773 276° West  Level FlightAware Approximate
02:12 23.6073 -175.3091 276° West  Level FlightAware Approximate
02:13 23.6201 -175.4409 276° West  Level FlightAware Approximate
02:14 23.6327 -175.5728 276° West  Level FlightAware Approximate
02:15 23.6452 -175.7047 276° West  Level FlightAware Approximate
02:16 23.6576 -175.8366 276° West  Level FlightAware Approximate
02:17 23.6699 -175.9685 276° West  Level FlightAware Approximate
02:18 23.6821 -176.1005 276° West  Level FlightAware Approximate
02:19 23.6941 -176.2325 276° West  Level FlightAware Approximate
02:20 23.7061 -176.3645 276° West  Level FlightAware Approximate
02:21 23.7179 -176.4965 276° West  Level FlightAware Approximate
02:22 23.7297 -176.6286 276° West  Level FlightAware Approximate
02:23 23.7413 -176.7607 276° West  Level FlightAware Approximate
02:24 23.7528 -176.8928 275° West  Level FlightAware Approximate
02:25 23.7642 -177.0249 275° West  Level FlightAware Approximate
02:26 23.7755 -177.1571 275° West  Level FlightAware Approximate
02:27 23.7868 -177.2892 275° West  Level FlightAware Approximate
02:28 23.7983 -177.4214 275° West  Level FlightAware Approximate
02:29 23.8097 -177.5536 275° West  Level FlightAware Approximate
02:30 23.8210 -177.6858 275° West  Level FlightAware Approximate
02:31 23.8321 -177.8180 275° West  Level FlightAware Approximate
02:32 23.8432 -177.9502 275° West  Level FlightAware Approximate
02:33 23.8542 -178.0825 275° West  Level FlightAware Approximate
02:34 23.8650 -178.2148 275° West  Level FlightAware Approximate
02:35 23.8757 -178.3471 275° West  Level FlightAware Approximate
02:36 23.8863 -178.4794 275° West  Level FlightAware Approximate
02:37 23.8968 -178.6118 275° West  Level FlightAware Approximate
02:38 23.9072 -178.7441 275° West  Level FlightAware Approximate
02:39 23.9175 -178.8765 275° West  Level FlightAware Approximate
02:40 23.9276 -179.0090 275° West  Level FlightAware Approximate
02:41 23.9377 -179.1414 275° West  Level FlightAware Approximate
02:42 23.9476 -179.2739 275° West  Level FlightAware Approximate
02:43 23.9574 -179.4063 275° West  Level FlightAware Approximate
02:44 23.9671 -179.5388 275° West  Level FlightAware Approximate
02:45 23.9767 -179.6714 275° West  Level FlightAware Approximate
02:46 23.9862 -179.8039 275° West  Level FlightAware Approximate
02:47 23.9956 -179.9365 274° West  Level FlightAware Approximate
02:48 24.0157 179.9329 284° West  Level FlightAware Approximate
02:49 24.0458 179.8041 284° West  Level FlightAware Approximate
02:50 24.0757 179.6752 284° West  Level FlightAware Approximate
02:51 24.1056 179.5462 284° West  Level FlightAware Approximate
02:52 24.1353 179.4171 284° West  Level FlightAware Approximate
02:53 24.1649 179.2880 284° West  Level FlightAware Approximate
02:54 24.1945 179.1589 284° West  Level FlightAware Approximate
02:55 24.2239 179.0296 284° West  Level FlightAware Approximate
02:56 24.2532 178.9004 284° West  Level FlightAware Approximate
02:57 24.2824 178.7710 284° West  Level FlightAware Approximate
02:58 24.3115 178.6416 284° West  Level FlightAware Approximate
02:59 24.3405 178.5122 284° West  Level FlightAware Approximate
03:00 24.3693 178.3827 284° West  Level FlightAware Approximate
03:01 24.3981 178.2531 284° West  Level FlightAware Approximate
03:02 24.4268 178.1235 284° West  Level FlightAware Approximate
03:03 24.4553 177.9938 284° West  Level FlightAware Approximate
03:04 24.4837 177.8640 284° West  Level FlightAware Approximate
03:05 24.5120 177.7342 284° West  Level FlightAware Approximate
03:06 24.5402 177.6044 283° West  Level FlightAware Approximate
03:07 24.5683 177.4745 283° West  Level FlightAware Approximate
03:08 24.5963 177.3445 283° West  Level FlightAware Approximate
03:09 24.6242 177.2144 283° West  Level FlightAware Approximate
03:10 24.6519 177.0843 283° West  Level FlightAware Approximate
03:11 24.6796 176.9542 283° West  Level FlightAware Approximate
03:12 24.7071 176.8240 283° West  Level FlightAware Approximate
03:13 24.7345 176.6937 283° West  Level FlightAware Approximate
03:14 24.7618 176.5634 283° West  Level FlightAware Approximate
03:15 24.7890 176.4330 283° West  Level FlightAware Approximate
03:16 24.8161 176.3026 283° West  Level FlightAware Approximate
03:17 24.8431 176.1721 283° West  Level FlightAware Approximate
03:18 24.8699 176.0415 283° West  Level FlightAware Approximate
03:19 24.8967 175.9109 283° West  Level FlightAware Approximate
03:20 24.9233 175.7802 283° West  Level FlightAware Approximate
03:21 24.9498 175.6495 283° West  Level FlightAware Approximate
03:22 24.9762 175.5187 283° West  Level FlightAware Approximate
03:23 25.0032 175.3881 283° West  Level FlightAware Approximate
03:24 25.0303 175.2574 283° West  Level FlightAware Approximate
03:25 25.0572 175.1267 283° West  Level FlightAware Approximate
03:26 25.0841 174.9959 283° West  Level FlightAware Approximate
03:27 25.1109 174.8651 283° West  Level FlightAware Approximate
03:28 25.1375 174.7342 283° West  Level FlightAware Approximate
03:29 25.1640 174.6032 283° West  Level FlightAware Approximate
03:30 25.1904 174.4722 283° West  Level FlightAware Approximate
03:31 25.2167 174.3411 283° West  Level FlightAware Approximate
03:32 25.2429 174.2100 282° West  Level FlightAware Approximate
03:33 25.2689 174.0788 282° West  Level FlightAware Approximate
03:34 25.2949 173.9476 282° West  Level FlightAware Approximate
03:35 25.3207 173.8163 282° West  Level FlightAware Approximate
03:36 25.3464 173.6850 282° West  Level FlightAware Approximate
03:37 25.3709 173.5533 282° West  Level FlightAware Approximate
03:38 25.3952 173.4216 282° West  Level FlightAware Approximate
03:39 25.4193 173.2898 281° West  Level FlightAware Approximate
03:40 25.4433 173.1579 281° West  Level FlightAware Approximate
03:41 25.4671 173.0260 281° West  Level FlightAware Approximate
03:42 25.4909 172.8941 281° West  Level FlightAware Approximate
03:43 25.5145 172.7621 281° West  Level FlightAware Approximate
03:44 25.5389 172.6302 282° West  Level FlightAware Approximate
03:45 25.5632 172.4983 282° West  Level FlightAware Approximate
03:46 25.5874 172.3663 282° West  Level FlightAware Approximate
03:47 25.6115 172.2343 281° West  Level FlightAware Approximate
03:48 25.6355 172.1022 281° West  Level FlightAware Approximate
03:49 25.6594 171.9701 281° West  Level FlightAware Approximate
03:50 25.6831 171.8380 281° West  Level FlightAware Approximate
03:51 25.7068 171.7057 281° West  Level FlightAware Approximate
03:52 25.7303 171.5735 281° West  Level FlightAware Approximate
03:53 25.7537 171.4411 281° West  Level FlightAware Approximate
03:54 25.7769 171.3088 281° West  Level FlightAware Approximate
03:55 25.8001 171.1763 281° West  Level FlightAware Approximate
03:56 25.8231 171.0439 281° West  Level FlightAware Approximate
03:57 25.8460 170.9113 281° West  Level FlightAware Approximate
03:58 25.8688 170.7787 281° West  Level FlightAware Approximate
03:59 25.8914 170.6461 281° West  Level FlightAware Approximate
04:00 25.9140 170.5134 281° West  Level FlightAware Approximate
04:01 25.9364 170.3807 281° West  Level FlightAware Approximate
04:02 25.9587 170.2479 281° West  Level FlightAware Approximate
04:03 25.9809 170.1150 281° West  Level FlightAware Approximate
04:04 26.0053 169.9828 289° West  Level FlightAware Approximate
04:05 26.0447 169.8550 289° West  Level FlightAware Approximate
04:06 26.0857 169.7277 291° West  Level FlightAware Approximate
04:07 26.1288 169.6012 291° West  Level FlightAware Approximate
04:08 26.1718 169.4747 291° West  Level FlightAware Approximate
04:09 26.2147 169.3480 291° West  Level FlightAware Approximate
04:10 26.2575 169.2213 291° West  Level FlightAware Approximate
04:11 26.3001 169.0945 291° West  Level FlightAware Approximate
04:12 26.3427 168.9675 291° West  Level FlightAware Approximate
04:13 26.3851 168.8405 290° West  Level FlightAware Approximate
04:14 26.4275 168.7134 290° West  Level FlightAware Approximate
04:15 26.4697 168.5862 290° West  Level FlightAware Approximate
04:16 26.5118 168.4589 290° West  Level FlightAware Approximate
04:17 26.5538 168.3315 290° West  Level FlightAware Approximate
04:18 26.5957 168.2040 290° West  Level FlightAware Approximate
04:19 26.6374 168.0764 290° West  Level FlightAware Approximate
04:20 26.6791 167.9488 290° West  Level FlightAware Approximate
04:21 26.7206 167.8210 290° West  Level FlightAware Approximate
04:22 26.7621 167.6931 290° West  Level FlightAware Approximate
04:23 26.8034 167.5652 290° West  Level FlightAware Approximate
04:24 26.8446 167.4371 290° West  Level FlightAware Approximate
04:25 26.8857 167.3090 290° West  Level FlightAware Approximate
04:26 26.9266 167.1808 290° West  Level FlightAware Approximate
04:27 26.9675 167.0524 290° West  Level FlightAware Approximate
04:28 27.0082 166.9240 290° West  Level FlightAware Approximate
04:29 27.0488 166.7955 290° West  Level FlightAware Approximate
04:30 27.0893 166.6669 290° West  Level FlightAware Approximate
04:31 27.1297 166.5382 289° West  Level FlightAware Approximate
04:32 27.1700 166.4094 289° West  Level FlightAware Approximate
04:33 27.2101 166.2805 289° West  Level FlightAware Approximate
04:34 27.2501 166.1516 289° West  Level FlightAware Approximate
04:35 27.2901 166.0225 289° West  Level FlightAware Approximate
04:36 27.3298 165.8933 289° West  Level FlightAware Approximate
04:37 27.3695 165.7641 289° West  Level FlightAware Approximate
04:38 27.4091 165.6347 289° West  Level FlightAware Approximate
04:39 27.4485 165.5053 289° West  Level FlightAware Approximate
04:40 27.4878 165.3758 289° West  Level FlightAware Approximate
04:41 27.5270 165.2461 289° West  Level FlightAware Approximate
04:42 27.5661 165.1164 289° West  Level FlightAware Approximate
04:43 27.6050 164.9866 289° West  Level FlightAware Approximate
04:44 27.6439 164.8567 289° West  Level FlightAware Approximate
04:45 27.6826 164.7267 289° West  Level FlightAware Approximate
04:46 27.7212 164.5966 289° West  Level FlightAware Approximate
04:47 27.7596 164.4665 288° West  Level FlightAware Approximate
04:48 27.7980 164.3362 288° West  Level FlightAware Approximate
04:49 27.8362 164.2058 288° West  Level FlightAware Approximate
04:50 27.8743 164.0754 288° West  Level FlightAware Approximate
04:51 27.9123 163.9448 288° West  Level FlightAware Approximate
04:52 27.9501 163.8142 288° West  Level FlightAware Approximate
04:53 27.9879 163.6835 288° West  Level FlightAware Approximate
04:54 28.0255 163.5527 288° West  Level FlightAware Approximate
04:55 28.0630 163.4218 288° West  Level FlightAware Approximate
04:56 28.1003 163.2908 288° West  Level FlightAware Approximate
04:57 28.1383 163.1599 289° West  Level FlightAware Approximate
04:58 28.1767 163.0292 288° West  Level FlightAware Approximate
04:59 28.2150 162.8984 288° West  Level FlightAware Approximate
05:00 28.2532 162.7676 288° West  Level FlightAware Approximate
05:01 28.2913 162.6366 288° West  Level FlightAware Approximate
05:02 28.3292 162.5055 288° West  Level FlightAware Approximate
05:03 28.3659 162.3740 287° West  Level FlightAware Approximate
05:04 28.4013 162.2419 287° West  Level FlightAware Approximate
05:05 28.4366 162.1097 287° West  Level FlightAware Approximate
05:06 28.4717 161.9774 287° West  Level FlightAware Approximate
05:07 28.5066 161.8451 287° West  Level FlightAware Approximate
05:08 28.5415 161.7127 287° West  Level FlightAware Approximate
05:09 28.5767 161.5803 287° West  Level FlightAware Approximate
05:10 28.6129 161.4483 287° West  Level FlightAware Approximate
05:11 28.6490 161.3161 287° West  Level FlightAware Approximate
05:12 28.6849 161.1839 287° West  Level FlightAware Approximate
05:13 28.7207 161.0516 287° West  Level FlightAware Approximate
05:14 28.7564 160.9191 287° West  Level FlightAware Approximate
05:15 28.7920 160.7867 287° West  Level FlightAware Approximate
05:16 28.8274 160.6541 287° West  Level FlightAware Approximate
05:17 28.8628 160.5214 287° West  Level FlightAware Approximate
05:18 28.8979 160.3886 287° West  Level FlightAware Approximate
05:19 28.9330 160.2557 287° West  Level FlightAware Approximate
05:20 28.9679 160.1228 287° West  Level FlightAware Approximate
05:21 29.0042 159.9904 297° West  Level FlightAware Approximate
05:22 29.0592 159.8665 297° West  Level FlightAware Approximate
05:23 29.1139 159.7425 297° West  Level FlightAware Approximate
05:24 29.1686 159.6183 297° West  Level FlightAware Approximate
05:25 29.2232 159.4940 297° West  Level FlightAware Approximate
05:26 29.2776 159.3695 297° West  Level FlightAware Approximate
05:27 29.3319 159.2449 297° West  Level FlightAware Approximate
05:28 29.3862 159.1202 297° West  Level FlightAware Approximate
05:29 29.4403 158.9953 296° West  Level FlightAware Approximate
05:30 29.4942 158.8704 296° West  Level FlightAware Approximate
05:31 29.5481 158.7453 296° West  Level FlightAware Approximate
05:32 29.6018 158.6200 296° West  Level FlightAware Approximate
05:33 29.6555 158.4946 296° West  Level FlightAware Approximate
05:34 29.7090 158.3691 296° West  Level FlightAware Approximate
05:35 29.7624 158.2435 296° West  Level FlightAware Approximate
05:36 29.8170 158.1185 297° West  Level FlightAware Approximate
05:37 29.8717 157.9934 297° West  Level FlightAware Approximate
05:38 29.9262 157.8682 297° West  Level FlightAware Approximate
05:39 29.9806 157.7429 297° West  Level FlightAware Approximate
05:40 30.0349 157.6174 297° West  Level FlightAware Approximate
05:41 30.0891 157.4918 297° West  Level FlightAware Approximate
05:42 30.1431 157.3660 296° West  Level FlightAware Approximate
05:43 30.1968 157.2400 296° West  Level FlightAware Approximate
05:44 30.2504 157.1138 296° West  Level FlightAware Approximate
05:45 30.3038 156.9875 296° West  Level FlightAware Approximate
05:46 30.3571 156.8610 296° West  Level FlightAware Approximate
05:47 30.4103 156.7344 296° West  Level FlightAware Approximate
05:48 30.4633 156.6077 296° West  Level FlightAware Approximate
05:49 30.5162 156.4808 296° West  Level FlightAware Approximate
05:50 30.5690 156.3538 296° West  Level FlightAware Approximate
05:51 30.6217 156.2267 296° West  Level FlightAware Approximate
05:52 30.6743 156.0994 296° West  Level FlightAware Approximate
05:53 30.7267 155.9720 296° West  Level FlightAware Approximate
05:54 30.7790 155.8444 296° West  Level FlightAware Approximate
05:55 30.8312 155.7167 295° West  Level FlightAware Approximate
05:56 30.8833 155.5889 295° West  Level FlightAware Approximate
05:57 30.9352 155.4609 295° West  Level FlightAware Approximate
05:58 30.9870 155.3328 295° West  Level FlightAware Approximate
05:59 31.0387 155.2045 295° West  Level FlightAware Approximate
06:00 31.0903 155.0761 295° West  Level FlightAware Approximate
06:01 31.1417 154.9476 295° West  Level FlightAware Approximate
06:02 31.1930 154.8189 295° West  Level FlightAware Approximate
06:03 31.2442 154.6901 295° West  Level FlightAware Approximate
06:04 31.2952 154.5611 295° West  Level FlightAware Approximate
06:05 31.3459 154.4319 295° West  Level FlightAware Approximate
06:06 31.3966 154.3026 295° West  Level FlightAware Approximate
06:07 31.4471 154.1732 295° West  Level FlightAware Approximate
06:08 31.4975 154.0436 295° West  Level FlightAware Approximate
06:09 31.5478 153.9139 294° West  Level FlightAware Approximate
06:10 31.5979 153.7840 294° West  Level FlightAware Approximate
06:11 31.6479 153.6540 294° West  Level FlightAware Approximate
06:12 31.6978 153.5239 294° West  Level FlightAware Approximate
06:13 31.7475 153.3936 294° West  Level FlightAware Approximate
06:14 31.7971 153.2632 294° West  Level FlightAware Approximate
06:15 31.8466 153.1326 294° West  Level FlightAware Approximate
06:16 31.8959 153.0019 294° West  Level FlightAware Approximate
06:17 31.9451 152.8711 294° West  Level FlightAware Approximate
06:18 31.9942 152.7401 294° West  Level FlightAware Approximate
06:19 32.0432 152.6090 294° West  Level FlightAware Approximate
06:20 32.0919 152.4777 294° West  Level FlightAware Approximate
06:21 32.1406 152.3463 294° West  Level FlightAware Approximate
06:22 32.1891 152.2148 294° West  Level FlightAware Approximate
06:23 32.2375 152.0831 294° West  Level FlightAware Approximate
06:24 32.2858 151.9513 293° West  Level FlightAware Approximate
06:25 32.3344 151.8195 294° West  Level FlightAware Approximate
06:26 32.3837 151.6881 294° West  Level FlightAware Approximate
06:27 32.4328 151.5565 294° West  Level FlightAware Approximate
06:28 32.4819 151.4248 294° West  Level FlightAware Approximate
06:29 32.5307 151.2930 294° West  Level FlightAware Approximate
06:30 32.5795 151.1610 294° West  Level FlightAware Approximate
06:31 32.6281 151.0288 294° West  Level FlightAware Approximate
06:32 32.6766 150.8965 294° West  Level FlightAware Approximate
06:33 32.7249 150.7641 293° West  Level FlightAware Approximate
06:34 32.7731 150.6315 293° West  Level FlightAware Approximate
06:35 32.8211 150.4988 293° West  Level FlightAware Approximate
06:36 32.8690 150.3660 293° West  Level FlightAware Approximate
06:37 32.9168 150.2330 293° West  Level FlightAware Approximate
06:38 32.9644 150.0998 293° West  Level FlightAware Approximate
06:39 33.0115 149.9663 292° West  Level FlightAware Approximate
06:40 33.0570 149.8320 292° West  Level FlightAware Approximate
06:41 33.1025 149.6976 292° West  Level FlightAware Approximate
06:42 33.1478 149.5630 292° West  Level FlightAware Approximate
06:43 33.1930 149.4283 292° West  Level FlightAware Approximate
06:44 33.2380 149.2935 292° West  Level FlightAware Approximate
06:45 33.2828 149.1585 292° West  Level FlightAware Approximate
06:46 33.3276 149.0233 292° West  Level FlightAware Approximate
06:47 33.3721 148.8881 292° West  Level FlightAware Approximate
06:48 33.4166 148.7527 291° West  Level FlightAware Approximate
06:49 33.4608 148.6171 291° West  Level FlightAware Approximate
06:50 33.5050 148.4814 291° West  Level FlightAware Approximate
06:51 33.5490 148.3456 291° West  Level FlightAware Approximate
06:52 33.5928 148.2097 291° West  Level FlightAware Approximate
06:53 33.6365 148.0736 291° West  Level FlightAware Approximate
06:54 33.6800 147.9373 291° West  Level FlightAware Approximate
06:55 33.7234 147.8010 291° West  Level FlightAware Approximate
06:56 33.7667 147.6645 291° West  Level FlightAware Approximate
06:57 33.8098 147.5278 291° West  Level FlightAware Approximate
06:58 33.8527 147.3910 291° West  Level FlightAware Approximate
06:59 33.8955 147.2541 291° West  Level FlightAware Approximate
07:00 33.9381 147.1170 291° West  Level FlightAware Approximate
07:01 33.9806 146.9798 291° West  Level FlightAware Approximate
07:02 34.0229 146.8425 290° West  Level FlightAware Approximate
07:03 34.0651 146.7050 290° West  Level FlightAware Approximate
07:04 34.1071 146.5674 290° West  Level FlightAware Approximate
07:05 34.1490 146.4297 290° West  Level FlightAware Approximate
07:06 34.1907 146.2918 290° West  Level FlightAware Approximate
07:07 34.2323 146.1538 290° West  Level FlightAware Approximate
07:08 34.2737 146.0156 290° West  Level FlightAware Approximate
07:09 34.2973 145.8719 279° West  Level FlightAware Approximate
07:10 34.3154 145.7265 279° West  Level FlightAware Approximate
07:11 34.3333 145.5811 279° West  Level FlightAware Approximate
07:12 34.3510 145.4355 278° West  Level FlightAware Approximate
07:13 34.3686 145.2899 278° West  Level FlightAware Approximate
07:14 34.3860 145.1443 278° West  Level FlightAware Approximate
07:15 34.4032 144.9986 278° West  Level FlightAware Approximate
07:16 34.4202 144.8528 278° West  Level FlightAware Approximate
07:17 34.4367 144.7069 278° West  Level FlightAware Approximate
07:18 34.4531 144.5609 278° West  Level FlightAware Approximate
07:19 34.4693 144.4149 278° West  Level FlightAware Approximate
07:20 34.4853 144.2689 278° West  Level FlightAware Approximate
07:21 34.5011 144.1228 278° West  Level FlightAware Approximate
07:22 34.5168 143.9766 277° West  Level FlightAware Approximate
07:23 34.5323 143.8304 277° West  Level FlightAware Approximate
07:24 34.5476 143.6841 277° West  Level FlightAware Approximate
07:25 34.5628 143.5377 277° West  Level FlightAware Approximate
07:26 34.5960 143.3965 289° West  Level FlightAware Approximate
07:27 34.6354 143.2568 289° West  Level FlightAware Approximate
07:28 34.6746 143.1171 289° West  Level FlightAware Approximate
07:29 34.7137 142.9772 289° West  Level FlightAware Approximate
07:30 34.7526 142.8372 289° West  Level FlightAware Approximate
07:31 34.7913 142.6970 289° West  Level FlightAware Approximate
07:32 34.8299 142.5567 289° West  Level FlightAware Approximate
07:33 34.8683 142.4163 288° West  Level FlightAware Approximate
07:34 34.9061 142.2756 287° West  Level FlightAware Approximate
07:35 34.9416 142.1339 287° West  Level FlightAware Approximate
07:36 34.9770 141.9922 287° West  Level FlightAware Approximate
07:37 35.0209 141.8540 292° West  Level FlightAware Approximate
07:38 35.0629 141.7150 287° West  Level FlightAware Approximate
07:39 35.0985 141.5730 287° West  Level FlightAware Approximate
07:40 35.1339 141.4310 286° West  Level FlightAware Approximate
07:41 35.1665 141.2879 286° West  Level FlightAware Approximate
07:42 35.1990 141.1447 286° West  Level FlightAware Approximate
07:43 35.2350 141.0028 289° West  Level FlightAware Approximate
07:44 35.2752 140.8624 289° West  Level FlightAware Approximate
07:45 35.3152 140.7219 289° West  Level FlightAware Approximate
07:46 35.3510 140.5796 287° West  Level FlightAware Approximate
07:47 35.3878 140.4377 288° West  Level FlightAware Approximate
07:48 35.4255 140.2960 288° West  Level FlightAware Approximate
07:49 35.4527 140.1508 282° West  Level FlightAware Approximate
07:50 35.4894 140.0099 296° West  Level FlightAware Approximate
07:51 35.5169 139.8659 292° West  Level FlightAware Approximate
07:52 35.5523 139.7797 292° West  Level Estimated
07:53 35.5523 139.7797 292° West  Level Estimated
07:54 35.5523 139.7797 292° West  Level Estimated
07:55 35.5523 139.7797 292° West  Level Estimated
07:56 35.5523 139.7797 292° West  Level Estimated
07:57 35.5523 139.7797 292° West  Level Estimated
07:58 35.5523 139.7797 292° West  Level Estimated
07:59 35.5523 139.7797 292° West  Level Estimated
08:00 35.5523 139.7797 292° West  Level Estimated
08:01 35.5523 139.7797 292° West  Level Estimated
08:02 35.5523 139.7797 292° West  Level Estimated
08:03 35.5523 139.7797 292° West  Level Estimated